createdAt,value
2023-05-11T00:00:06.635Z,24.60
2023-05-11T00:02:36.444Z,24.60
2023-05-11T00:05:06.514Z,24.60
2023-05-11T00:07:36.328Z,24.60
2023-05-11T00:10:06.151Z,24.60
2023-05-11T00:12:36.003Z,24.60
2023-05-11T00:15:06.163Z,24.50
2023-05-11T00:17:36.088Z,24.60
2023-05-11T00:20:06.315Z,24.50
2023-05-11T00:22:36.226Z,24.50
2023-05-11T00:25:06.538Z,24.50
2023-05-11T00:27:36.329Z,24.50
2023-05-11T00:30:06.467Z,24.50
2023-05-11T00:32:36.382Z,24.50
2023-05-11T00:35:06.275Z,24.50
2023-05-11T00:37:36.067Z,24.50
2023-05-11T00:40:06.741Z,24.50
2023-05-11T00:42:46.204Z,24.50
2023-05-11T00:45:16.154Z,24.60
2023-05-11T00:47:45.990Z,24.70
2023-05-11T00:50:16.382Z,24.70
2023-05-11T00:52:47.058Z,24.70
2023-05-11T00:55:17.851Z,24.80
2023-05-11T00:57:48.017Z,24.90
2023-05-11T01:00:18.462Z,24.90
2023-05-11T01:02:48.751Z,24.90
2023-05-11T01:05:18.844Z,24.90
2023-05-11T01:08:15.859Z,24.90
2023-05-11T01:10:57.532Z,25.00
2023-05-11T01:13:50.893Z,25.10
2023-05-11T01:16:26.387Z,25.10
2023-05-11T01:19:08.190Z,25.20
2023-05-11T01:21:41.388Z,25.30
2023-05-11T01:24:48.911Z,25.30
2023-05-11T01:27:47.193Z,25.40
2023-05-11T01:30:35.419Z,25.40
2023-05-11T01:33:10.976Z,25.50
2023-05-11T01:35:48.191Z,25.60
2023-05-11T01:38:23.743Z,25.70
2023-05-11T01:40:59.043Z,25.70
2023-05-11T01:43:31.498Z,25.90
2023-05-11T01:46:03.941Z,26.00
2023-05-11T01:48:39.669Z,26.10
2023-05-11T01:51:11.186Z,26.10
2023-05-11T01:53:43.408Z,26.20
2023-05-11T01:56:14.368Z,26.30
2023-05-11T01:58:45.043Z,26.30
2023-05-11T02:01:16.487Z,26.30
2023-05-11T02:03:48.361Z,26.40
2023-05-11T02:06:19.811Z,26.50
2023-05-11T02:08:51.678Z,26.60
2023-05-11T02:11:24.956Z,26.70
2023-05-11T02:13:56.126Z,26.80
2023-05-11T02:16:30.016Z,27.00
2023-05-11T02:19:00.988Z,27.00
2023-05-11T02:21:33.463Z,27.10
2023-05-11T02:24:07.850Z,27.20
2023-05-11T02:26:37.674Z,27.30
2023-05-11T02:29:07.383Z,27.50
2023-05-11T02:31:42.846Z,27.50
2023-05-11T02:34:37.957Z,27.60
2023-05-11T02:37:12.874Z,27.60
2023-05-11T02:39:47.086Z,27.70
2023-05-11T02:42:24.842Z,27.70
2023-05-11T02:45:14.646Z,27.80
2023-05-11T02:47:55.056Z,27.90
2023-05-11T02:50:27.204Z,27.90
2023-05-11T02:53:00.613Z,27.90
2023-05-11T02:55:31.288Z,27.90
2023-05-11T02:58:01.509Z,27.80
2023-05-11T03:00:31.276Z,27.90
2023-05-11T03:03:01.438Z,27.80
2023-05-11T03:05:31.102Z,27.90
2023-05-11T03:08:02.153Z,27.90
2023-05-11T03:10:32.015Z,27.90
2023-05-11T03:13:02.713Z,28.00
2023-05-11T03:15:32.850Z,28.00
2023-05-11T03:18:04.031Z,28.10
2023-05-11T03:20:35.962Z,28.10
2023-05-11T03:23:07.414Z,28.10
2023-05-11T03:25:37.625Z,28.10
2023-05-11T03:28:09.408Z,28.10
2023-05-11T03:30:40.895Z,28.20
2023-05-11T03:33:10.724Z,28.20
2023-05-11T03:35:42.556Z,28.20
2023-05-11T03:38:15.041Z,28.20
2023-05-11T03:40:46.731Z,28.20
2023-05-11T03:43:21.258Z,28.30
2023-05-11T03:45:53.677Z,28.20
2023-05-11T03:48:23.799Z,28.20
2023-05-11T03:50:54.160Z,28.30
2023-05-11T03:53:24.242Z,28.30
2023-05-11T03:55:54.597Z,28.40
2023-05-11T03:58:25.153Z,28.50
2023-05-11T04:00:55.291Z,28.50
2023-05-11T04:03:25.250Z,28.50
2023-05-11T04:05:55.060Z,28.50
2023-05-11T04:08:25.020Z,28.60
2023-05-11T04:10:54.769Z,28.60
2023-05-11T04:13:24.531Z,28.60
2023-05-11T04:15:54.565Z,28.70
2023-05-11T04:18:25.051Z,28.80
2023-05-11T04:20:54.789Z,28.90
2023-05-11T04:23:24.596Z,29.00
2023-05-11T04:25:59.071Z,29.10
2023-05-11T04:28:29.663Z,29.20
2023-05-11T04:31:00.433Z,29.30
2023-05-11T04:33:30.036Z,29.30
2023-05-11T04:36:00.602Z,29.30
2023-05-11T04:38:30.326Z,29.30
2023-05-11T04:41:00.150Z,29.40
2023-05-11T04:43:32.710Z,29.50
2023-05-11T04:46:02.540Z,29.60
2023-05-11T04:48:32.443Z,29.80
2023-05-11T04:51:05.748Z,29.90
2023-05-11T04:53:35.612Z,30.00
2023-05-11T04:56:05.608Z,30.10
2023-05-11T04:58:35.298Z,30.20
2023-05-11T05:01:05.101Z,30.30
2023-05-11T05:03:37.791Z,30.30
2023-05-11T05:06:07.564Z,30.30
2023-05-11T05:08:37.346Z,30.30
2023-05-11T05:11:06.986Z,30.30
2023-05-11T05:13:36.750Z,30.20
2023-05-11T05:16:06.730Z,30.20
2023-05-11T05:18:36.845Z,30.30
2023-05-11T05:21:06.816Z,30.30
2023-05-11T05:23:36.620Z,30.40
2023-05-11T05:26:06.308Z,30.40
2023-05-11T05:28:37.745Z,30.50
2023-05-11T05:31:07.973Z,30.50
2023-05-11T05:33:37.955Z,30.50
2023-05-11T05:36:07.868Z,30.60
2023-05-11T05:38:37.879Z,30.60
2023-05-11T05:41:07.933Z,30.60
2023-05-11T05:43:37.550Z,30.70
2023-05-11T05:46:08.042Z,30.80
2023-05-11T05:48:37.888Z,30.90
2023-05-11T05:51:07.645Z,31.10
2023-05-11T05:53:37.405Z,31.20
2023-05-11T05:56:07.695Z,31.30
2023-05-11T05:58:37.391Z,31.40
2023-05-11T06:01:07.443Z,31.50
2023-05-11T06:03:37.241Z,31.60
2023-05-11T06:06:07.096Z,31.70
2023-05-11T06:08:36.855Z,31.70
2023-05-11T06:11:06.855Z,31.80
2023-05-11T06:13:36.692Z,31.90
2023-05-11T06:16:06.740Z,31.90
2023-05-11T06:18:36.602Z,32.00
2023-05-11T06:21:06.448Z,32.00
2023-05-11T06:23:36.109Z,32.10
2023-05-11T06:26:06.067Z,32.10
2023-05-11T06:28:35.896Z,32.10
2023-05-11T06:31:05.705Z,32.10
2023-05-11T06:33:35.449Z,32.10
2023-05-11T06:36:11.493Z,32.00
2023-05-11T06:38:41.312Z,31.90
2023-05-11T06:41:13.107Z,31.90
2023-05-11T06:43:42.954Z,31.90
2023-05-11T06:46:18.040Z,31.90
2023-05-11T06:48:47.943Z,31.90
2023-05-11T06:51:17.978Z,31.80
2023-05-11T06:53:48.114Z,31.70
2023-05-11T06:56:18.452Z,31.70
2023-05-11T06:58:48.190Z,31.60
2023-05-11T07:01:18.530Z,31.60
2023-05-11T07:03:51.957Z,31.60
2023-05-11T07:06:24.497Z,31.70
2023-05-11T07:08:54.504Z,31.70
2023-05-11T07:11:24.497Z,31.80
2023-05-11T07:13:54.522Z,31.90
2023-05-11T07:16:25.183Z,31.90
2023-05-11T07:18:54.989Z,32.00
2023-05-11T07:21:24.902Z,32.10
2023-05-11T07:23:54.593Z,32.20
2023-05-11T07:26:24.454Z,32.20
2023-05-11T07:28:54.389Z,32.20
2023-05-11T07:31:24.489Z,32.20
2023-05-11T07:33:55.089Z,32.20
2023-05-11T07:36:24.789Z,32.20
2023-05-11T07:38:54.566Z,32.10
2023-05-11T07:41:27.778Z,32.10
2023-05-11T07:43:57.935Z,32.10
2023-05-11T07:46:27.873Z,32.10
2023-05-11T07:49:13.623Z,32.00
2023-05-11T07:51:46.755Z,32.00
2023-05-11T07:54:17.740Z,32.00
2023-05-11T07:56:48.771Z,31.90
2023-05-11T07:59:18.606Z,31.90
2023-05-11T08:01:48.292Z,31.80
2023-05-11T08:04:18.044Z,31.70
2023-05-11T08:06:47.837Z,31.60
2023-05-11T08:09:17.938Z,31.40
2023-05-11T08:11:47.609Z,31.30
2023-05-11T08:14:17.692Z,31.20
2023-05-11T08:16:48.706Z,31.10
2023-05-11T08:19:18.516Z,31.10
2023-05-11T08:21:48.649Z,31.00
2023-05-11T08:24:18.499Z,31.00
2023-05-11T08:26:49.063Z,30.90
2023-05-11T08:29:18.816Z,30.80
2023-05-11T08:31:48.550Z,30.80
2023-05-11T08:34:19.635Z,30.70
2023-05-11T08:36:50.263Z,30.70
2023-05-11T08:39:33.317Z,30.70
2023-05-11T08:42:11.671Z,30.60
2023-05-11T08:44:42.696Z,30.60
2023-05-11T08:49:46.737Z,30.50
2023-05-11T08:52:18.539Z,30.40
2023-05-11T08:54:49.146Z,30.30
2023-05-11T08:57:19.728Z,30.20
2023-05-11T08:59:51.355Z,30.10
2023-05-11T09:02:22.361Z,30.00
2023-05-11T09:04:53.082Z,29.80
2023-05-11T09:07:23.811Z,29.60
2023-05-11T09:09:54.589Z,29.50
2023-05-11T09:12:27.830Z,29.40
2023-05-11T09:15:02.023Z,29.40
2023-05-11T09:17:32.197Z,29.40
2023-05-11T09:20:07.165Z,29.30
2023-05-11T09:22:43.051Z,29.30
2023-05-11T09:25:15.832Z,29.30
2023-05-11T09:27:47.341Z,29.20
2023-05-11T09:30:22.500Z,29.20
2023-05-11T09:33:02.247Z,29.10
2023-05-11T09:35:37.578Z,29.00
2023-05-11T09:38:15.883Z,29.00
2023-05-11T09:40:54.131Z,28.90
2023-05-11T09:43:27.794Z,28.90
2023-05-11T09:45:59.923Z,28.90
2023-05-11T09:48:33.604Z,28.80
2023-05-11T09:51:09.320Z,28.90
2023-05-11T09:53:47.175Z,28.90
2023-05-11T09:56:17.698Z,28.90
2023-05-11T09:58:56.938Z,29.00
2023-05-11T10:01:38.273Z,29.00
2023-05-11T10:04:22.798Z,29.00
2023-05-11T10:06:55.381Z,28.90
2023-05-11T10:09:30.339Z,28.80
2023-05-11T10:12:00.210Z,28.70
2023-05-11T10:14:31.470Z,28.70
2023-05-11T10:17:03.295Z,28.70
2023-05-11T10:19:34.632Z,28.60
2023-05-11T10:22:07.468Z,28.60
2023-05-11T10:24:37.919Z,28.60
2023-05-11T10:27:07.806Z,28.60
2023-05-11T10:29:39.498Z,28.50
2023-05-11T10:32:11.014Z,28.50
2023-05-11T10:34:44.149Z,28.50
2023-05-11T10:37:14.629Z,28.50
2023-05-11T10:39:47.750Z,28.50
2023-05-11T10:42:50.053Z,28.50
2023-05-11T10:45:36.680Z,28.40
2023-05-11T10:48:41.841Z,28.50
2023-05-11T10:51:50.995Z,28.50
2023-05-11T10:54:59.805Z,28.40
2023-05-11T10:57:50.746Z,28.50
2023-05-11T11:01:00.022Z,28.40
2023-05-11T11:03:30.368Z,28.30
2023-05-11T11:06:00.986Z,28.30
2023-05-11T11:08:31.642Z,28.20
2023-05-11T11:11:01.721Z,28.20
2023-05-11T11:13:31.692Z,28.20
2023-05-11T11:16:16.912Z,28.20
2023-05-11T11:18:47.083Z,28.20
2023-05-11T11:21:37.456Z,28.10
2023-05-11T11:24:07.691Z,28.10
2023-05-11T11:26:57.040Z,28.00
2023-05-11T11:29:27.067Z,28.00
2023-05-11T11:31:57.055Z,28.00
2023-05-11T11:34:38.131Z,28.00
2023-05-11T11:37:10.532Z,28.00
2023-05-11T11:39:51.861Z,28.00
2023-05-11T11:42:39.342Z,28.00
2023-05-11T11:45:32.792Z,28.00
2023-05-11T11:48:23.648Z,27.90
2023-05-11T11:51:05.974Z,27.90
2023-05-11T11:54:04.934Z,27.80
2023-05-11T11:56:42.786Z,27.80
2023-05-11T11:59:15.703Z,27.80
2023-05-11T12:01:47.521Z,27.80
2023-05-11T12:04:50.440Z,27.80
2023-05-11T12:07:22.965Z,27.80
2023-05-11T12:09:54.635Z,27.80
2023-05-11T12:12:24.420Z,27.80
2023-05-11T12:14:54.412Z,27.80
2023-05-11T12:17:30.165Z,27.80
2023-05-11T12:20:17.351Z,27.70
2023-05-11T12:22:48.882Z,27.70
2023-05-11T12:25:20.304Z,27.70
2023-05-11T12:27:52.308Z,27.70
2023-05-11T12:30:27.749Z,27.70
2023-05-11T12:32:58.164Z,27.60
2023-05-11T12:35:30.098Z,27.60
2023-05-11T12:38:01.995Z,27.60
2023-05-11T12:40:32.810Z,27.60
2023-05-11T12:43:03.125Z,27.50
2023-05-11T12:45:33.025Z,27.50
2023-05-11T12:48:03.710Z,27.60
2023-05-11T12:50:33.332Z,27.50
2023-05-11T12:53:23.635Z,27.50
2023-05-11T12:56:02.781Z,27.50
2023-05-11T12:58:43.540Z,27.50
2023-05-11T13:01:13.407Z,27.50
2023-05-11T13:03:49.526Z,27.50
2023-05-11T13:06:22.487Z,27.50
2023-05-11T13:08:53.442Z,27.60
2023-05-11T13:11:28.592Z,27.60
2023-05-11T13:13:59.509Z,27.60
2023-05-11T13:16:35.089Z,27.60
2023-05-11T13:19:06.998Z,27.60
2023-05-11T13:21:37.011Z,27.60
2023-05-11T13:24:07.955Z,27.60
2023-05-11T13:26:37.741Z,27.60
2023-05-11T13:29:11.059Z,27.50
2023-05-11T13:31:56.692Z,27.50
2023-05-11T13:34:28.157Z,27.40
2023-05-11T13:36:58.958Z,27.40
2023-05-11T13:39:28.751Z,27.40
2023-05-11T13:41:58.577Z,27.30
2023-05-11T13:44:28.627Z,27.30
2023-05-11T13:46:58.616Z,27.30
2023-05-11T13:49:29.388Z,27.30
2023-05-11T13:51:59.448Z,27.30
2023-05-11T13:54:29.355Z,27.30
2023-05-11T13:57:00.174Z,27.30
2023-05-11T13:59:29.973Z,27.30
2023-05-11T14:01:59.841Z,27.30
2023-05-11T14:04:29.867Z,27.20
2023-05-11T14:07:00.514Z,27.20
2023-05-11T14:09:30.285Z,27.20
2023-05-11T14:12:00.145Z,27.20
2023-05-11T14:14:29.882Z,27.30
2023-05-11T14:16:59.749Z,27.30
2023-05-11T14:19:29.514Z,27.30
2023-05-11T14:21:59.115Z,27.30
2023-05-11T14:24:29.750Z,27.20
2023-05-11T14:27:01.173Z,27.10
2023-05-11T14:29:30.844Z,27.10
2023-05-11T14:32:00.505Z,27.10
2023-05-11T14:34:30.263Z,27.10
2023-05-11T14:36:59.985Z,27.00
2023-05-11T14:39:30.074Z,27.10
2023-05-11T14:41:59.694Z,27.10
2023-05-11T14:44:33.138Z,27.10
2023-05-11T14:47:02.986Z,27.00
2023-05-11T14:49:32.555Z,27.00
2023-05-11T14:52:02.437Z,27.00
2023-05-11T14:54:33.159Z,26.90
2023-05-11T14:57:02.809Z,27.00
2023-05-11T14:59:32.905Z,27.00
2023-05-11T15:02:03.721Z,27.00
2023-05-11T15:04:33.741Z,27.00
2023-05-11T15:07:03.735Z,27.10
2023-05-11T15:09:33.448Z,27.00
2023-05-11T15:12:05.103Z,27.10
2023-05-11T15:14:34.844Z,27.10
2023-05-11T15:17:04.694Z,27.10
2023-05-11T15:19:34.621Z,27.10
2023-05-11T15:22:04.282Z,27.10
2023-05-11T15:24:35.622Z,27.10
2023-05-11T15:27:05.456Z,27.10
2023-05-11T15:29:35.553Z,27.10
2023-05-11T15:32:05.356Z,27.10
2023-05-11T15:34:41.658Z,27.10
2023-05-11T15:37:17.200Z,27.10
2023-05-11T15:39:47.079Z,27.10
2023-05-11T15:42:17.656Z,27.10
2023-05-11T15:44:47.502Z,27.10
2023-05-11T15:47:17.185Z,27.10
2023-05-11T15:49:46.969Z,27.10
2023-05-11T15:52:16.823Z,27.10
2023-05-11T15:54:46.659Z,27.10
2023-05-11T15:57:16.563Z,27.10
2023-05-11T15:59:46.439Z,27.10
2023-05-11T16:02:16.190Z,27.10
2023-05-11T16:04:46.427Z,27.00
2023-05-11T16:07:16.174Z,27.00
2023-05-11T16:09:46.348Z,27.00
2023-05-11T16:12:16.177Z,27.00
2023-05-11T16:14:45.800Z,27.00
2023-05-11T16:17:15.627Z,27.00
2023-05-11T16:19:45.501Z,27.00
2023-05-11T16:22:15.157Z,27.00
2023-05-11T16:24:45.554Z,26.90
2023-05-11T16:27:15.184Z,26.90
2023-05-11T16:29:44.746Z,26.90
2023-05-11T16:32:14.989Z,26.90
2023-05-11T16:34:44.658Z,26.90
2023-05-11T16:37:14.648Z,26.90
2023-05-11T16:39:44.550Z,26.90
2023-05-11T16:42:14.261Z,26.90
2023-05-11T16:44:43.885Z,27.00
2023-05-11T16:47:16.666Z,26.90
2023-05-11T16:49:47.024Z,26.90
2023-05-11T16:52:16.832Z,26.90
2023-05-11T16:54:46.573Z,26.90
2023-05-11T16:57:16.399Z,27.00
2023-05-11T16:59:46.182Z,27.00
2023-05-11T17:02:16.267Z,26.90
2023-05-11T17:04:45.929Z,27.00
2023-05-11T17:07:16.605Z,26.90
2023-05-11T17:09:47.226Z,26.90
2023-05-11T17:12:16.911Z,26.90
2023-05-11T17:14:46.516Z,26.90
2023-05-11T17:17:16.209Z,26.90
2023-05-11T17:19:46.030Z,26.90
2023-05-11T17:22:15.772Z,26.90
2023-05-11T17:24:47.764Z,26.90
2023-05-11T17:27:18.045Z,26.90
2023-05-11T17:29:47.831Z,26.90
2023-05-11T17:32:17.622Z,26.90
2023-05-11T17:34:47.398Z,26.90
2023-05-11T17:37:30.693Z,26.90
2023-05-11T17:40:02.706Z,26.90
2023-05-11T17:42:33.556Z,26.90
2023-05-11T17:45:03.394Z,26.90
2023-05-11T17:47:33.356Z,26.90
2023-05-11T17:50:03.292Z,26.90
2023-05-11T17:52:33.040Z,26.80
2023-05-11T17:55:04.438Z,26.90
2023-05-11T17:57:34.915Z,26.90
2023-05-11T18:00:04.799Z,26.90
2023-05-11T18:02:34.833Z,26.90
2023-05-11T18:05:04.697Z,26.90
2023-05-11T18:07:34.940Z,26.90
2023-05-11T18:10:04.738Z,26.90
2023-05-11T18:12:34.458Z,26.80
2023-05-11T18:15:04.350Z,26.90
2023-05-11T18:17:34.202Z,26.90
2023-05-11T18:20:04.169Z,26.90
2023-05-11T18:22:35.831Z,26.80
2023-05-11T18:25:06.435Z,26.80
2023-05-11T18:27:37.441Z,26.70
2023-05-11T18:30:07.589Z,26.70
2023-05-11T18:32:37.390Z,26.70
2023-05-11T18:35:07.496Z,26.70
2023-05-11T18:37:37.168Z,26.70
2023-05-11T18:40:08.897Z,26.70
2023-05-11T18:42:38.970Z,26.70
2023-05-11T18:45:09.406Z,26.70
2023-05-11T18:47:39.278Z,26.70
2023-05-11T18:50:09.669Z,26.70
2023-05-11T18:52:39.385Z,26.70
2023-05-11T18:55:09.716Z,26.70
2023-05-11T18:57:41.238Z,26.70
2023-05-11T19:00:12.850Z,26.70
2023-05-11T19:02:42.461Z,26.70
2023-05-11T19:05:12.528Z,26.70
2023-05-11T19:07:42.848Z,26.70
2023-05-11T19:10:12.769Z,26.70
2023-05-11T19:12:42.500Z,26.70
2023-05-11T19:15:12.665Z,26.70
2023-05-11T19:17:42.494Z,26.70
2023-05-11T19:20:12.908Z,26.70
2023-05-11T19:22:42.736Z,26.70
2023-05-11T19:25:13.438Z,26.70
2023-05-11T19:27:43.133Z,26.70
2023-05-11T19:30:13.022Z,26.70
2023-05-11T19:32:44.304Z,26.70
2023-05-11T19:35:15.758Z,26.70
2023-05-11T19:37:47.916Z,26.70
2023-05-11T19:42:50.901Z,26.70
2023-05-11T19:45:20.750Z,26.70
2023-05-11T19:47:50.464Z,26.70
2023-05-11T19:50:22.588Z,26.70
2023-05-11T19:52:54.474Z,26.70
2023-05-11T19:55:24.408Z,26.70
2023-05-11T19:57:54.496Z,26.70
2023-05-11T20:00:26.801Z,26.70
2023-05-11T20:02:58.830Z,26.70
2023-05-11T20:05:28.608Z,26.70
2023-05-11T20:07:58.255Z,26.70
2023-05-11T20:10:30.317Z,26.70
2023-05-11T20:13:01.203Z,26.70
2023-05-11T20:15:30.938Z,26.70
2023-05-11T20:18:00.711Z,26.70
2023-05-11T20:20:31.095Z,26.70
2023-05-11T20:23:02.316Z,26.70
2023-05-11T20:25:32.709Z,26.60
2023-05-11T20:28:02.795Z,26.60
2023-05-11T20:30:32.446Z,26.60
2023-05-11T20:35:35.614Z,26.60
2023-05-11T20:38:05.325Z,26.60
2023-05-11T20:40:35.002Z,26.60
2023-05-11T20:43:05.472Z,26.60
2023-05-11T20:45:35.180Z,26.60
2023-05-11T20:48:04.821Z,26.60
2023-05-11T20:50:34.642Z,26.60
2023-05-11T20:53:04.175Z,26.60
2023-05-11T20:55:33.843Z,26.60
2023-05-11T20:58:05.832Z,26.60
2023-05-11T21:00:35.794Z,26.60
2023-05-11T21:03:06.282Z,26.60
2023-05-11T21:05:36.348Z,26.60
2023-05-11T21:08:06.032Z,26.60
2023-05-11T21:10:35.887Z,26.60
2023-05-11T21:13:05.594Z,26.60
2023-05-11T21:15:35.452Z,26.60
2023-05-11T21:18:05.469Z,26.60
2023-05-11T21:20:35.146Z,26.60
2023-05-11T21:23:05.509Z,26.60
2023-05-11T21:25:35.867Z,26.60
2023-05-11T21:28:06.607Z,26.60
2023-05-11T21:30:36.446Z,26.60
2023-05-11T21:33:06.433Z,26.60
2023-05-11T21:35:36.051Z,26.60
2023-05-11T21:38:05.971Z,26.60
2023-05-11T21:40:35.615Z,26.60
2023-05-11T21:43:05.200Z,26.60
2023-05-11T21:45:34.938Z,26.60
2023-05-11T21:48:04.743Z,26.60
2023-05-11T21:50:34.489Z,26.60
2023-05-11T21:53:04.313Z,26.60
2023-05-11T21:55:34.079Z,26.60
2023-05-11T21:58:05.420Z,26.60
2023-05-11T22:00:36.256Z,26.60
2023-05-11T22:03:06.192Z,26.60
2023-05-11T22:05:35.906Z,26.60
2023-05-11T22:08:13.891Z,26.60
2023-05-11T22:10:44.801Z,26.60
2023-05-11T22:13:14.484Z,26.60
2023-05-11T22:15:44.339Z,26.60
2023-05-11T22:18:14.365Z,26.60
2023-05-11T22:20:44.152Z,26.60
2023-05-11T22:23:15.648Z,26.60
2023-05-11T22:25:46.426Z,26.60
2023-05-11T22:28:16.210Z,26.60
2023-05-11T22:30:46.046Z,26.60
2023-05-11T22:33:15.923Z,26.50
2023-05-11T22:35:45.638Z,26.60
2023-05-11T22:38:15.498Z,26.50
2023-05-11T22:40:45.196Z,26.50
2023-05-11T22:43:15.015Z,26.50
2023-05-11T22:45:44.916Z,26.50
2023-05-11T22:48:15.157Z,26.50
2023-05-11T22:50:49.374Z,26.50
2023-05-11T22:53:21.573Z,26.50
2023-05-11T22:55:51.388Z,26.50
2023-05-11T22:58:21.277Z,26.40
2023-05-11T23:00:56.159Z,26.40
2023-05-11T23:03:26.289Z,26.40
2023-05-11T23:05:57.416Z,26.40
2023-05-11T23:08:28.487Z,26.40
2023-05-11T23:10:58.270Z,26.50
2023-05-11T23:13:28.156Z,26.40
2023-05-11T23:16:13.606Z,26.40
2023-05-11T23:18:43.406Z,26.40
2023-05-11T23:21:13.343Z,26.40
2023-05-11T23:23:44.621Z,26.50
2023-05-11T23:26:15.611Z,26.40
2023-05-11T23:28:46.137Z,26.40
2023-05-11T23:31:16.003Z,26.40
2023-05-11T23:33:45.669Z,26.50
2023-05-11T23:36:16.236Z,26.40
2023-05-11T23:38:45.944Z,26.50
2023-05-11T23:41:15.636Z,26.50
2023-05-11T23:43:45.429Z,26.50
2023-05-11T23:46:15.324Z,26.50
2023-05-11T23:48:44.991Z,26.50
2023-05-11T23:51:14.842Z,26.60
2023-05-11T23:53:44.805Z,26.50
2023-05-11T23:56:14.969Z,26.60
2023-05-11T23:58:47.314Z,26.60
